Time;durP1;ratioP1;P1;durP2;ratioP2;P2;SDS_P1;SDS_P2;PMS_P1;PMS_P2;Temp;Humidity;BMP_temperature;BMP_pressure;BME280_temperature;BME280_humidity;BME280_pressure;Samples;Min_cycle;Max_cycle;Signal;HPM_P1;HPM_P2
2023/06/26 00:01:01;;;;;;;9.43;5.35;;;;;;;17.28;100.00;98665.25;5031590;28;20033;-75
2023/06/26 00:03:26;;;;;;;9.85;5.25;;;;;;;17.39;100.00;98663.50;5027332;28;20024;-75
2023/06/26 00:05:51;;;;;;;8.30;5.10;;;;;;;17.25;100.00;98665.75;5035063;28;20017;-75
2023/06/26 00:08:17;;;;;;;7.25;4.75;;;;;;;17.24;100.00;98676.97;5032501;28;20021;-76
2023/06/26 00:10:42;;;;;;;8.45;5.07;;;;;;;17.21;100.00;98678.31;5066299;28;20476;-75
2023/06/26 00:13:07;;;;;;;8.45;4.90;;;;;;;17.09;100.00;98658.41;5031169;28;20025;-75
2023/06/26 00:15:33;;;;;;;7.78;4.68;;;;;;;17.11;100.00;98667.19;5048830;28;20081;-75
2023/06/26 00:17:59;;;;;;;9.40;4.70;;;;;;;17.14;100.00;98683.09;5060078;28;20031;-76
2023/06/26 00:20:25;;;;;;;9.30;4.78;;;;;;;17.10;100.00;98668.25;5034036;28;20021;-75
2023/06/26 00:22:50;;;;;;;8.57;5.45;;;;;;;17.08;100.00;98684.06;5038683;28;20471;-76
2023/06/26 00:25:16;;;;;;;7.63;4.47;;;;;;;16.89;100.00;98660.81;5036283;28;20029;-76
2023/06/26 00:27:41;;;;;;;9.00;5.18;;;;;;;16.84;100.00;98667.00;5051373;28;20029;-76
2023/06/26 00:30:07;;;;;;;11.70;5.35;;;;;;;16.86;100.00;98671.16;5033826;28;20025;-75
2023/06/26 00:32:33;;;;;;;8.05;5.07;;;;;;;16.82;100.00;98680.94;5049383;28;20029;-75
2023/06/26 00:34:58;;;;;;;14.07;5.25;;;;;;;16.78;100.00;98671.56;5052699;28;20510;-75
2023/06/26 00:37:23;;;;;;;11.32;5.43;;;;;;;16.80;100.00;98687.72;5036083;28;20096;-76
2023/06/26 00:39:49;;;;;;;7.68;5.22;;;;;;;16.71;100.00;98683.69;5052703;28;20032;-75
2023/06/26 00:42:14;;;;;;;8.40;4.78;;;;;;;16.69;100.00;98669.44;5056108;28;20036;-75
2023/06/26 00:44:39;;;;;;;9.80;5.78;;;;;;;16.69;100.00;98667.56;5047976;28;20024;-73
2023/06/26 00:47:05;;;;;;;9.75;5.35;;;;;;;16.61;100.00;98663.34;5051544;28;20035;-74
2023/06/26 00:49:31;;;;;;;8.13;5.30;;;;;;;16.63;100.00;98677.53;5053787;28;20021;-73
2023/06/26 00:51:56;;;;;;;10.30;5.75;;;;;;;16.59;100.00;98668.22;5031660;28;20124;-74
2023/06/26 00:54:22;;;;;;;10.18;6.10;;;;;;;16.47;100.00;98653.78;5052235;28;20119;-75
2023/06/26 00:56:48;;;;;;;14.25;5.88;;;;;;;16.55;100.00;98663.47;5072568;28;20078;-75
2023/06/26 00:59:14;;;;;;;8.55;5.13;;;;;;;16.53;100.00;98665.63;5050784;28;20068;-74
2023/06/26 01:01:39;;;;;;;9.75;5.55;;;;;;;16.42;100.00;98651.78;5044394;28;20447;-74
2023/06/26 01:04:08;;;;;;;8.80;5.45;;;;;;;16.43;100.00;98658.91;5030717;28;20037;-74
2023/06/26 01:06:36;;;;;;;11.23;5.75;;;;;;;16.38;100.00;98656.06;5041133;28;20021;-74
2023/06/26 01:09:02;;;;;;;10.13;5.65;;;;;;;16.49;100.00;98667.19;5035713;28;20057;-74
2023/06/26 01:11:28;;;;;;;12.43;6.22;;;;;;;16.42;100.00;98649.03;5033888;28;20509;-74
2023/06/26 01:13:56;;;;;;;8.70;5.03;;;;;;;16.49;100.00;98665.28;5049876;28;20033;-74
2023/06/26 01:16:23;;;;;;;8.38;5.55;;;;;;;16.48;100.00;98668.25;5048011;28;20033;-75
2023/06/26 01:18:49;;;;;;;8.93;5.40;;;;;;;16.31;100.00;98651.84;5032157;28;20029;-76
2023/06/26 01:21:15;;;;;;;7.82;5.20;;;;;;;16.35;100.00;98648.38;5033369;28;20032;-75
2023/06/26 01:23:57;;;;;;;9.43;5.95;;;;;;;16.24;100.00;98651.16;5041288;28;20063;-75
2023/06/26 01:26:23;;;;;;;8.75;5.43;;;;;;;16.13;100.00;98650.13;5049979;28;20424;-75
2023/06/26 01:28:53;;;;;;;8.90;6.00;;;;;;;16.14;100.00;98662.72;5047986;28;20051;-75
2023/06/26 01:31:19;;;;;;;9.50;5.50;;;;;;;16.13;100.00;98650.13;5036300;28;20045;-75
2023/06/26 01:33:46;;;;;;;10.40;5.97;;;;;;;16.21;100.00;98652.47;5038769;28;20036;-75
2023/06/26 01:36:11;;;;;;;9.43;6.00;;;;;;;16.04;100.00;98646.97;5042936;28;20039;-76
2023/06/26 01:38:36;;;;;;;9.65;6.28;;;;;;;15.98;100.00;98651.50;5055095;28;20041;-75
2023/06/26 01:41:03;;;;;;;9.55;6.13;;;;;;;15.94;100.00;98647.56;5030899;28;20123;-75
2023/06/26 01:43:43;;;;;;;9.27;5.85;;;;;;;15.90;100.00;98635.50;5056789;28;20028;-75
2023/06/26 01:46:38;;;;;;;10.07;6.18;;;;;;;16.00;100.00;98648.50;5048856;28;20036;-75
2023/06/26 01:49:42;;;;;;;12.40;5.68;;;;;;;15.96;100.00;98650.06;5026702;28;20132;-75
2023/06/26 01:52:29;;;;;;;10.90;5.75;;;;;;;15.92;100.00;98646.16;5052500;28;20544;-76
2023/06/26 01:55:16;;;;;;;8.57;5.97;;;;;;;15.85;100.00;98651.78;5022825;28;20045;-75
2023/06/26 01:57:43;;;;;;;10.23;5.93;;;;;;;15.76;100.00;98650.47;5052327;28;20371;-75
2023/06/26 02:00:11;;;;;;;7.78;5.47;;;;;;;15.65;100.00;98637.69;5047102;28;20024;-75
2023/06/26 02:02:36;;;;;;;11.85;5.90;;;;;;;15.56;100.00;98635.31;5045494;28;20036;-75
2023/06/26 02:05:01;;;;;;;12.00;6.18;;;;;;;15.70;100.00;98646.00;5029444;28;20033;-75
2023/06/26 02:07:27;;;;;;;11.15;6.13;;;;;;;15.63;100.00;98637.06;5045300;28;20063;-75
2023/06/26 02:09:52;;;;;;;10.95;5.70;;;;;;;15.59;100.00;98631.28;5043903;28;20037;-75
2023/06/26 02:12:17;;;;;;;9.57;5.50;;;;;;;15.63;100.00;98635.16;5049565;28;20032;-75
2023/06/26 02:14:43;;;;;;;8.60;5.45;;;;;;;15.67;100.00;98639.09;5041600;28;20037;-75
2023/06/26 02:17:08;;;;;;;11.25;5.75;;;;;;;15.53;100.00;98638.50;5031253;28;20029;-75
2023/06/26 02:19:34;;;;;;;9.52;6.22;;;;;;;15.45;100.00;98633.41;5068157;28;20064;-75
2023/06/26 02:21:59;;;;;;;9.35;5.60;;;;;;;15.47;100.00;98636.75;5040445;28;20024;-76
2023/06/26 02:24:27;;;;;;;8.27;5.22;;;;;;;15.56;100.00;98639.91;5036721;28;20122;-75
2023/06/26 02:26:52;;;;;;;7.63;5.82;;;;;;;15.42;100.00;98619.44;5038390;28;20119;-76
2023/06/26 02:29:17;;;;;;;10.27;5.70;;;;;;;15.41;100.00;98621.34;5047881;28;20108;-75
2023/06/26 02:31:43;;;;;;;7.95;5.25;;;;;;;15.57;100.00;98620.59;5051046;28;20029;-75
2023/06/26 02:34:08;;;;;;;10.13;5.63;;;;;;;15.57;100.00;98630.69;5058236;28;20056;-76
2023/06/26 02:36:33;;;;;;;11.00;5.25;;;;;;;15.62;100.00;98629.97;5058594;28;20469;-76
2023/06/26 02:38:58;;;;;;;9.57;5.20;;;;;;;15.60;100.00;98632.09;5063752;28;20040;-75
2023/06/26 02:41:24;;;;;;;8.07;4.80;;;;;;;15.49;100.00;98612.81;5033533;28;20362;-76
2023/06/26 02:43:49;;;;;;;11.10;5.25;;;;;;;15.61;100.00;98620.94;5025289;28;20094;-76
2023/06/26 02:46:14;;;;;;;8.23;5.57;;;;;;;15.66;100.00;98631.13;5047683;28;20024;-76
2023/06/26 02:48:40;;;;;;;13.40;5.80;;;;;;;15.52;100.00;98625.13;5058473;28;20017;-76
2023/06/26 02:51:05;;;;;;;9.18;5.63;;;;;;;15.46;100.00;98624.19;5048772;28;20017;-76
2023/06/26 02:53:31;;;;;;;11.30;5.88;;;;;;;15.37;100.00;98602.97;5050840;28;20029;-75
2023/06/26 02:55:56;;;;;;;11.82;5.28;;;;;;;15.55;100.00;98628.19;5028368;28;20025;-76
2023/06/26 02:58:21;;;;;;;10.15;5.60;;;;;;;15.43;100.00;98610.19;5048493;28;20028;-76
2023/06/26 03:00:47;;;;;;;8.10;5.40;;;;;;;15.42;100.00;98633.91;5024692;28;20360;-76
2023/06/26 03:03:12;;;;;;;8.30;5.70;;;;;;;15.36;100.00;98639.50;5040105;28;20032;-76
2023/06/26 03:05:38;;;;;;;9.10;5.65;;;;;;;15.27;100.00;98626.22;5047020;28;20013;-76
2023/06/26 03:08:03;;;;;;;10.18;6.25;;;;;;;15.24;100.00;98632.13;5032507;28;20037;-76
2023/06/26 03:10:29;;;;;;;9.52;6.00;;;;;;;15.19;100.00;98633.91;5035636;28;20024;-76
2023/06/26 03:12:54;;;;;;;10.30;6.40;;;;;;;15.13;100.00;98632.97;5043282;28;20102;-75
2023/06/26 03:15:20;;;;;;;10.88;6.68;;;;;;;15.16;100.00;98656.19;5029199;28;20483;-74
2023/06/26 03:17:45;;;;;;;14.27;6.28;;;;;;;15.05;100.00;98644.22;5044574;28;20028;-76
2023/06/26 03:20:10;;;;;;;10.88;6.65;;;;;;;15.11;100.00;98635.09;5058892;28;20086;-76
2023/06/26 03:22:36;;;;;;;9.18;6.18;;;;;;;14.98;100.00;98621.72;5024786;28;20498;-75
2023/06/26 03:25:03;;;;;;;9.50;6.10;;;;;;;15.16;100.00;98639.84;5040398;28;20039;-76
2023/06/26 03:27:28;;;;;;;11.20;7.15;;;;;;;15.11;100.00;98638.66;5039178;28;20424;-75
2023/06/26 03:29:53;;;;;;;9.73;5.72;;;;;;;15.09;100.00;98638.09;5052439;28;20037;-71
2023/06/26 03:32:18;;;;;;;8.57;5.57;;;;;;;15.03;100.00;98643.63;5019339;28;20455;-70
2023/06/26 03:34:44;;;;;;;10.07;5.57;;;;;;;15.09;100.00;98645.41;5038514;28;20035;-73
2023/06/26 03:37:09;;;;;;;13.13;5.57;;;;;;;15.19;100.00;98653.00;5043101;28;20033;-71
2023/06/26 03:39:34;;;;;;;10.45;6.20;;;;;;;15.12;100.00;98643.06;5046521;28;20033;-69
2023/06/26 03:42:01;;;;;;;9.50;5.47;;;;;;;15.08;100.00;98658.19;5047782;28;20108;-71
2023/06/26 03:44:27;;;;;;;8.60;5.35;;;;;;;15.10;100.00;98661.53;5053676;28;20024;-73
2023/06/26 03:46:52;;;;;;;9.55;6.10;;;;;;;15.16;100.00;98661.66;5049053;28;20296;-73
2023/06/26 03:49:18;;;;;;;8.55;5.47;;;;;;;15.23;100.00;98657.75;5041742;28;20032;-72
2023/06/26 03:51:44;;;;;;;7.68;5.32;;;;;;;15.17;100.00;98655.13;5043287;28;20158;-72
2023/06/26 03:54:09;;;;;;;12.68;6.30;;;;;;;15.22;100.00;98664.28;5050665;28;20021;-72
2023/06/26 03:56:35;;;;;;;9.73;5.85;;;;;;;15.38;100.00;98676.34;5035468;28;20055;-71
2023/06/26 03:59:00;;;;;;;12.18;5.78;;;;;;;15.28;100.00;98654.31;5044359;28;20447;-72
2023/06/26 04:01:25;;;;;;;10.10;5.65;;;;;;;15.34;100.00;98665.06;5047524;28;20044;-72
2023/06/26 04:03:51;;;;;;;9.48;6.03;;;;;;;15.30;100.00;98652.16;5031124;28;20061;-74
2023/06/26 04:06:16;;;;;;;13.25;6.18;;;;;;;15.38;100.00;98670.91;5054995;28;20389;-72
2023/06/26 04:08:41;;;;;;;11.20;6.20;;;;;;;15.35;100.00;98668.63;5062116;28;20087;-75
2023/06/26 04:11:07;;;;;;;10.65;6.35;;;;;;;15.27;100.00;98648.03;5060455;28;20494;-73
2023/06/26 04:13:32;;;;;;;13.75;6.25;;;;;;;15.43;100.00;98671.03;5040011;28;20550;-70
2023/06/26 04:15:57;;;;;;;9.48;6.28;;;;;;;15.45;100.00;98666.13;5044514;28;20021;-71
2023/06/26 04:18:23;;;;;;;10.27;6.70;;;;;;;15.45;100.00;98649.78;5052250;28;20032;-70
2023/06/26 04:21:18;;;;;;;9.65;6.22;;;;;;;15.72;100.00;98676.59;5030396;28;20067;-70
2023/06/26 04:23:43;;;;;;;13.98;7.65;;;;;;;15.82;100.00;98678.69;5029389;28;20034;-69
2023/06/26 04:26:13;;;;;;;10.52;7.00;;;;;;;15.88;100.00;98664.09;5050532;28;20083;-69
2023/06/26 04:28:38;;;;;;;18.88;7.07;;;;;;;16.06;100.00;98680.31;5057365;28;20107;-71
2023/06/26 04:31:03;;;;;;;10.23;6.30;;;;;;;16.16;100.00;98660.56;5028749;28;20132;-72
2023/06/26 04:33:29;;;;;;;13.60;7.63;;;;;;;16.27;100.00;98656.97;5056751;28;20114;-70
2023/06/26 04:35:54;;;;;;;11.57;6.70;;;;;;;16.47;100.00;98666.59;5045703;28;20030;-71
2023/06/26 04:38:21;;;;;;;11.65;7.20;;;;;;;16.58;100.00;98661.09;5048896;28;20033;-69
2023/06/26 04:40:47;;;;;;;12.75;6.60;;;;;;;16.80;100.00;98674.06;5046031;28;20025;-69
2023/06/26 04:43:12;;;;;;;10.95;6.35;;;;;;;16.92;100.00;98657.56;5051127;28;20037;-67
2023/06/26 04:45:38;;;;;;;8.48;5.60;;;;;;;17.03;100.00;98662.16;5049040;28;20383;-69
2023/06/26 04:48:03;;;;;;;13.95;6.00;;;;;;;17.11;100.00;98655.41;5059433;28;20296;-69
2023/06/26 04:50:30;;;;;;;12.10;5.90;;;;;;;17.27;100.00;98654.59;5035844;28;20021;-71
2023/06/26 04:52:55;;;;;;;11.50;6.55;;;;;;;17.44;100.00;98655.38;5044251;28;20036;-68
2023/06/26 04:55:23;;;;;;;11.95;6.32;;;;;;;17.55;100.00;98659.06;5064403;28;20025;-78
2023/06/26 04:57:49;;;;;;;10.00;6.30;;;;;;;17.67;100.00;98645.31;5028709;28;20025;-76
2023/06/26 05:00:15;;;;;;;9.57;6.13;;;;;;;17.77;100.00;98647.34;5055441;28;20440;-77
2023/06/26 05:02:40;;;;;;;11.35;6.50;;;;;;;17.84;100.00;98648.00;5055970;28;20127;-78
2023/06/26 05:05:06;;;;;;;10.45;6.47;;;;;;;17.91;100.00;98652.19;5045449;28;20033;-78
2023/06/26 05:07:31;;;;;;;11.65;6.32;;;;;;;17.95;100.00;98633.38;5056324;28;20031;-76
2023/06/26 05:09:56;;;;;;;8.57;5.80;;;;;;;18.19;100.00;98644.88;5042754;28;20521;-76
2023/06/26 05:12:22;;;;;;;10.07;6.22;;;;;;;18.49;100.00;98649.00;5038198;28;20669;-79
2023/06/26 05:14:47;;;;;;;10.43;6.55;;;;;;;18.50;100.00;98626.84;5039272;28;20066;-76
2023/06/26 05:17:16;;;;;;;9.60;5.45;;;;;;;18.70;100.00;98639.06;5030204;28;20502;-74
2023/06/26 05:19:41;;;;;;;8.75;6.40;;;;;;;18.79;100.00;98629.34;5028161;28;20082;-76
2023/06/26 05:22:07;;;;;;;12.45;6.13;;;;;;;19.14;100.00;98649.88;5032997;28;20132;-74
2023/06/26 05:24:38;;;;;;;12.13;6.78;;;;;;;19.12;100.00;98641.91;5046805;28;20016;-74
2023/06/26 05:27:05;;;;;;;8.63;6.22;;;;;;;19.35;100.00;98650.84;5044561;28;20025;-73
2023/06/26 05:29:31;;;;;;;11.55;6.53;;;;;;;19.46;100.00;98658.06;5053730;28;20029;-72
2023/06/26 05:31:57;;;;;;;9.88;6.05;;;;;;;19.54;100.00;98627.38;5024215;28;20509;-77
2023/06/26 05:34:23;;;;;;;12.02;5.70;;;;;;;19.93;100.00;98658.06;5044720;28;20095;-75
2023/06/26 05:36:51;;;;;;;10.68;6.57;;;;;;;20.03;100.00;98639.97;5029253;28;20486;-81
2023/06/26 05:39:17;;;;;;;10.10;6.47;;;;;;;20.23;100.00;98639.22;5040323;28;20044;-82
2023/06/26 05:41:44;;;;;;;9.90;6.40;;;;;;;20.45;100.00;98653.56;5061271;28;20055;-82
2023/06/26 05:44:09;;;;;;;12.05;6.38;;;;;;;20.64;100.00;98651.16;5039373;28;20036;-82
2023/06/26 05:46:35;;;;;;;9.82;6.68;;;;;;;20.78;100.00;98637.72;5023461;28;20029;-76
2023/06/26 05:49:01;;;;;;;10.93;6.22;;;;;;;21.02;100.00;98649.81;5031042;28;20474;-79
2023/06/26 05:51:27;;;;;;;9.25;5.95;;;;;;;21.29;100.00;98645.91;5082285;28;20032;-81
2023/06/26 05:53:53;;;;;;;9.23;5.13;;;;;;;21.39;100.00;98639.63;5049873;28;20036;-74
2023/06/26 05:56:18;;;;;;;9.02;5.95;;;;;;;21.70;100.00;98647.81;5046222;28;20112;-76
2023/06/26 05:58:45;;;;;;;9.10;5.50;;;;;;;21.98;100.00;98649.91;5031263;28;20048;-77
2023/06/26 06:01:10;;;;;;;7.22;5.32;;;;;;;22.21;100.00;98651.19;5032726;28;20114;-75
2023/06/26 06:03:35;;;;;;;9.65;5.68;;;;;;;22.51;100.00;98652.97;5037357;28;20462;-75
2023/06/26 06:06:01;;;;;;;9.40;5.20;;;;;;;22.81;100.00;98651.09;5041675;28;20025;-71
2023/06/26 06:08:26;;;;;;;8.40;5.88;;;;;;;22.97;100.00;98651.84;5053118;28;20032;-71
2023/06/26 06:10:51;;;;;;;8.77;5.90;;;;;;;23.16;100.00;98638.13;5060796;28;20033;-77
2023/06/26 06:13:17;;;;;;;8.05;5.68;;;;;;;23.36;100.00;98642.66;5031908;28;20063;-73
2023/06/26 06:15:42;;;;;;;8.80;5.90;;;;;;;23.50;100.00;98643.63;5052166;28;20053;-75
2023/06/26 06:18:07;;;;;;;12.90;5.35;;;;;;;23.87;100.00;98649.59;5049700;28;20032;-77
2023/06/26 06:20:33;;;;;;;9.82;5.75;;;;;;;23.92;100.00;98636.56;5051643;28;20422;-77
2023/06/26 06:22:58;;;;;;;8.75;5.55;;;;;;;24.11;100.00;98642.13;5024044;28;20017;-75
2023/06/26 06:25:23;;;;;;;11.75;5.68;;;;;;;24.54;100.00;98639.34;5051200;28;20037;-71
2023/06/26 06:27:49;;;;;;;9.30;5.45;;;;;;;24.78;100.00;98627.34;5054345;28;20028;-75
2023/06/26 06:30:14;;;;;;;8.30;5.50;;;;;;;25.18;100.00;98647.19;5064456;28;20028;-73
2023/06/26 06:32:39;;;;;;;9.07;5.53;;;;;;;25.38;100.00;98635.78;5047494;28;20092;-74
2023/06/26 06:35:09;;;;;;;12.30;5.60;;;;;;;25.58;94.32;98646.47;5034256;28;20460;-70
2023/06/26 06:37:38;;;;;;;13.75;6.00;;;;;;;25.12;92.84;98638.13;5061984;28;20024;-69
2023/06/26 06:40:08;;;;;;;9.43;5.53;;;;;;;25.48;94.06;98659.69;5042293;28;20041;-69
2023/06/26 06:42:34;;;;;;;9.93;5.60;;;;;;;25.82;91.87;98639.09;5039797;28;20039;-69
2023/06/26 06:45:00;;;;;;;8.15;6.03;;;;;;;26.05;86.15;98663.06;5043880;28;20033;-68
2023/06/26 06:47:25;;;;;;;10.07;6.30;;;;;;;26.10;85.07;98651.84;5044290;28;20125;-69
2023/06/26 06:49:50;;;;;;;8.82;5.28;;;;;;;26.48;80.99;98659.91;5037456;28;20130;-69
2023/06/26 06:52:15;;;;;;;7.95;5.20;;;;;;;26.88;75.65;98647.06;5054931;28;20033;-69
2023/06/26 06:54:59;;;;;;;8.90;5.20;;;;;;;28.09;68.92;98654.47;5049790;28;20036;-69
2023/06/26 06:57:24;;;;;;;8.25;5.20;;;;;;;29.29;64.82;98656.88;5038214;28;20018;-75
2023/06/26 06:59:51;;;;;;;7.07;5.22;;;;;;;31.78;56.08;98646.69;5040799;28;20158;-72
2023/06/26 07:02:17;;;;;;;10.07;5.10;;;;;;;33.14;50.17;98650.97;5049050;28;20116;-73
2023/06/26 07:04:42;;;;;;;8.48;5.50;;;;;;;33.88;46.85;98636.50;5039711;28;20052;-75
2023/06/26 07:07:08;;;;;;;9.32;5.38;;;;;;;35.10;43.17;98643.78;5047625;28;20052;-71
2023/06/26 07:09:34;;;;;;;7.15;5.47;;;;;;;35.53;42.45;98643.81;5051122;28;20501;-71
2023/06/26 07:12:00;;;;;;;8.05;5.47;;;;;;;36.04;40.19;98645.50;5044432;28;20527;-74
2023/06/26 07:14:25;;;;;;;6.97;5.35;;;;;;;35.66;39.87;98647.25;5027419;28;20116;-73
2023/06/26 07:16:50;;;;;;;6.93;4.95;;;;;;;36.27;39.09;98643.50;5042882;28;20113;-72
2023/06/26 07:19:16;;;;;;;7.68;5.45;;;;;;;37.55;37.71;98637.13;5038571;28;20052;-72
2023/06/26 07:21:42;;;;;;;6.38;5.20;;;;;;;37.17;37.68;98644.75;5051917;28;20056;-71
2023/06/26 07:24:08;;;;;;;7.85;5.00;;;;;;;37.52;37.41;98650.00;5038883;28;20021;-72
2023/06/26 07:26:33;;;;;;;7.55;5.38;;;;;;;37.03;36.98;98636.94;5050882;28;20522;-72
2023/06/26 07:28:58;;;;;;;8.35;5.13;;;;;;;38.84;35.82;98641.72;5038837;28;20043;-73
2023/06/26 07:31:24;;;;;;;6.63;4.65;;;;;;;39.06;35.07;98642.66;5049705;28;20033;-75
2023/06/26 07:33:49;;;;;;;7.38;4.75;;;;;;;39.17;34.91;98643.50;5045261;28;20055;-74
2023/06/26 07:36:14;;;;;;;6.65;5.00;;;;;;;39.70;33.80;98636.38;5044331;28;20487;-73
2023/06/26 07:38:39;;;;;;;6.25;4.88;;;;;;;40.52;32.45;98644.03;5055472;28;20033;-75
2023/06/26 07:41:05;;;;;;;6.03;4.80;;;;;;;40.34;33.09;98637.59;5033852;28;20025;-74
2023/06/26 07:43:31;;;;;;;5.70;4.30;;;;;;;39.74;32.97;98636.34;5045451;28;20119;-74
2023/06/26 07:45:58;;;;;;;6.57;4.72;;;;;;;39.55;32.78;98640.38;5027346;28;20691;-73
2023/06/26 07:48:23;;;;;;;8.45;4.40;;;;;;;39.65;33.32;98645.25;5034777;28;20029;-71
2023/06/26 07:50:49;;;;;;;6.50;4.80;;;;;;;38.68;33.87;98644.88;5043315;28;20029;-71
2023/06/26 07:53:14;;;;;;;8.30;4.93;;;;;;;39.45;33.11;98653.31;5052863;28;20128;-71
2023/06/26 07:55:39;;;;;;;6.40;4.80;;;;;;;40.29;32.19;98641.66;5061072;28;20474;-71
2023/06/26 07:58:05;;;;;;;9.38;4.57;;;;;;;40.82;32.06;98639.91;5051198;28;20081;-71
2023/06/26 08:00:30;;;;;;;6.53;4.90;;;;;;;41.07;31.17;98634.16;5038678;28;20045;-72
2023/06/26 08:02:55;;;;;;;6.20;4.47;;;;;;;42.33;30.28;98639.78;5041828;28;20045;-76
2023/06/26 08:05:21;;;;;;;6.50;4.77;;;;;;;43.73;29.65;98651.09;5052958;28;20036;-75
2023/06/26 08:07:46;;;;;;;5.72;4.80;;;;;;;44.34;28.71;98641.53;5043576;28;20303;-76
2023/06/26 08:10:12;;;;;;;8.13;4.40;;;;;;;45.40;28.32;98634.09;5049948;28;20091;-74
2023/06/26 08:12:40;;;;;;;6.18;4.28;;;;;;;43.85;28.54;98640.34;5048770;28;20025;-75
2023/06/26 08:15:06;;;;;;;;;;;;;;;44.35;28.42;98643.13;5055002;28;20040;-75
2023/06/26 08:17:31;;;;;;;6.93;3.90;;;;;;;45.03;28.48;98646.75;5040410;28;19921;-76
2023/06/26 08:19:56;;;;;;;6.57;3.85;;;;;;;45.57;27.49;98625.59;5047752;28;20026;-75
2023/06/26 08:22:22;;;;;;;10.70;4.40;;;;;;;43.22;28.67;98644.50;5055655;28;20025;-75
2023/06/26 08:24:47;;;;;;;8.10;4.53;;;;;;;45.21;27.92;98637.81;5055917;28;20724;-77
2023/06/26 08:27:12;;;;;;;5.53;3.97;;;;;;;45.16;27.55;98635.47;5061379;28;20021;-76
2023/06/26 08:29:37;;;;;;;4.90;4.17;;;;;;;46.31;26.62;98627.84;5050114;28;20020;-76
2023/06/26 08:32:03;;;;;;;5.63;4.30;;;;;;;45.31;27.74;98611.06;5018256;28;20303;-76
2023/06/26 08:34:28;;;;;;;5.88;3.78;;;;;;;45.48;26.90;98623.31;5042612;28;20086;-76
2023/06/26 08:36:54;;;;;;;5.35;3.80;;;;;;;42.86;28.73;98624.19;5044299;28;20065;-81
2023/06/26 08:39:19;;;;;;;4.53;3.93;;;;;;;43.37;28.79;98616.63;5044449;28;20016;-77
2023/06/26 08:41:44;;;;;;;5.57;4.17;;;;;;;45.01;27.54;98621.47;5047523;28;20037;-74
2023/06/26 08:44:10;;;;;;;5.53;4.35;;;;;;;43.45;28.94;98629.53;5046975;28;20279;-74
2023/06/26 08:46:36;;;;;;;4.90;3.78;;;;;;;45.22;27.77;98619.41;5030273;28;20029;-72
2023/06/26 08:49:08;;;;;;;7.07;4.38;;;;;;;45.58;27.29;98602.28;5049506;28;20024;-74
2023/06/26 08:51:37;;;;;;;7.05;3.92;;;;;;;45.98;26.48;98609.88;5041548;28;20053;-82
2023/06/26 08:54:08;;;;;;;4.82;3.53;;;;;;;44.80;27.68;98608.47;5048083;28;20025;-75
2023/06/26 08:56:41;;;;;;;4.97;3.72;;;;;;;45.22;27.68;98610.84;5032753;28;20031;-76
2023/06/26 08:59:08;;;;;;;6.55;3.45;;;;;;;46.23;27.48;98617.81;5058435;28;20037;-72
2023/06/26 09:01:33;;;;;;;4.13;3.72;;;;;;;45.67;26.54;98619.63;5050599;28;20017;-74
2023/06/26 09:03:59;;;;;;;4.85;3.50;;;;;;;47.23;26.12;98617.06;5027139;28;20490;-73
2023/06/26 09:06:24;;;;;;;5.25;3.85;;;;;;;44.91;27.27;98610.28;5038149;28;20508;-73
2023/06/26 09:08:50;;;;;;;4.13;3.72;;;;;;;45.50;27.58;98623.69;5061014;28;20032;-73
2023/06/26 09:11:15;;;;;;;3.70;3.28;;;;;;;47.30;26.79;98622.56;5060835;28;20033;-73
2023/06/26 09:13:42;;;;;;;8.85;3.58;;;;;;;47.42;25.68;98608.22;5050928;28;20693;-74
2023/06/26 09:16:08;;;;;;;3.63;3.05;;;;;;;47.71;26.11;98601.56;5047435;28;20390;-74
2023/06/26 09:18:33;;;;;;;3.78;3.15;;;;;;;47.82;25.59;98607.00;5054952;28;20315;-73
2023/06/26 09:20:59;;;;;;;3.83;3.35;;;;;;;46.91;26.08;98607.34;5057635;28;20025;-74
2023/06/26 09:23:24;;;;;;;3.42;3.00;;;;;;;46.59;27.12;98600.50;5049686;28;20028;-73
2023/06/26 09:25:51;;;;;;;4.05;3.20;;;;;;;48.22;25.30;98615.06;5049142;28;20032;-74
2023/06/26 09:28:16;;;;;;;3.17;2.88;;;;;;;48.00;25.39;98601.47;5042232;28;20134;-73
2023/06/26 09:30:42;;;;;;;4.07;2.70;;;;;;;48.40;24.82;98612.38;5042921;28;20108;-73
2023/06/26 09:33:18;;;;;;;4.22;2.70;;;;;;;47.61;25.75;98608.47;5040521;28;20303;-73
2023/06/26 09:35:44;;;;;;;6.60;2.78;;;;;;;46.01;26.06;98597.53;5020215;28;20025;-73
2023/06/26 09:38:10;;;;;;;2.87;2.53;;;;;;;47.50;25.56;98602.28;5049884;28;20029;-73
2023/06/26 09:40:37;;;;;;;4.05;2.58;;;;;;;48.18;25.38;98605.78;5027048;28;20029;-74
2023/06/26 09:43:04;;;;;;;3.17;2.83;;;;;;;47.91;25.55;98607.09;5044742;28;20039;-73
2023/06/26 09:45:36;;;;;;;5.53;2.47;;;;;;;48.22;24.86;98604.41;5044278;28;20134;-73
2023/06/26 09:48:02;;;;;;;3.30;2.75;;;;;;;47.56;25.35;98603.34;5026154;28;20038;-73
2023/06/26 09:50:29;;;;;;;2.65;2.42;;;;;;;47.51;25.54;98610.44;5043209;28;20096;-73
2023/06/26 09:52:55;;;;;;;2.60;2.40;;;;;;;44.61;27.27;98601.50;5040918;28;20112;-75
2023/06/26 09:55:23;;;;;;;4.28;2.85;;;;;;;43.93;28.11;98608.41;5033600;28;20503;-73
2023/06/26 09:57:54;;;;;;;3.22;2.90;;;;;;;40.74;30.68;98607.94;5036124;28;20077;-73
2023/06/26 10:00:20;;;;;;;3.75;2.80;;;;;;;42.12;29.83;98610.34;5050312;28;20025;-73
2023/06/26 10:02:45;;;;;;;3.35;2.85;;;;;;;43.17;28.76;98610.00;5042614;28;20485;-73
2023/06/26 10:05:11;;;;;;;3.47;3.08;;;;;;;40.94;30.87;98613.94;5044540;28;20483;-73
2023/06/26 10:07:37;;;;;;;4.13;3.35;;;;;;;42.45;30.65;98608.81;5042749;28;20025;-72
2023/06/26 10:10:05;;;;;;;5.88;3.45;;;;;;;43.10;28.93;98571.84;5046367;28;20049;-73
2023/06/26 10:12:31;;;;;;;6.53;3.42;;;;;;;43.91;29.14;98616.59;5055265;28;20025;-73
2023/06/26 10:14:57;;;;;;;3.75;3.05;;;;;;;42.10;29.51;98603.47;5032806;28;20124;-73
2023/06/26 10:17:26;;;;;;;7.38;3.75;;;;;;;39.58;32.66;98626.22;5045398;28;20118;-73
2023/06/26 10:19:53;;;;;;;8.23;3.95;;;;;;;38.28;34.56;98621.22;5058604;28;20437;-73
2023/06/26 10:22:21;;;;;;;7.27;3.63;;;;;;;39.51;33.85;98625.41;5061550;28;20028;-73
2023/06/26 10:24:48;;;;;;;6.32;3.63;;;;;;;39.97;34.18;98619.78;5056675;28;20024;-73
2023/06/26 10:27:21;;;;;;;5.85;3.72;;;;;;;41.42;32.27;98621.78;5056189;28;20273;-73
2023/06/26 10:30:02;;;;;;;5.55;3.42;;;;;;;42.28;30.69;98624.00;5038239;28;20475;-72
2023/06/26 10:32:28;;;;;;;4.90;3.38;;;;;;;40.76;31.58;98618.88;5036811;28;20029;-75
2023/06/26 10:34:56;;;;;;;5.82;3.53;;;;;;;38.97;33.80;98617.56;5058655;28;20024;-74
2023/06/26 10:37:45;;;;;;;6.35;3.67;;;;;;;38.30;35.02;98637.75;5050096;28;20383;-72
2023/06/26 10:40:13;;;;;;;7.05;3.33;;;;;;;38.58;35.43;98629.47;5054550;28;20041;-72
2023/06/26 10:42:39;;;;;;;4.50;4.00;;;;;;;38.40;35.60;98611.56;5037764;28;20035;-72
2023/06/26 10:45:16;;;;;;;6.55;3.83;;;;;;;39.52;34.46;98602.34;5044236;28;20120;-73
2023/06/26 10:47:45;;;;;;;4.63;4.10;;;;;;;38.00;35.79;98621.81;5049361;28;20044;-72
2023/06/26 10:50:38;;;;;;;8.00;4.40;;;;;;;38.75;35.03;98630.78;5063115;28;20031;-74
2023/06/26 10:53:13;;;;;;;6.78;3.90;;;;;;;40.01;34.09;98626.28;5036887;28;20044;-73
2023/06/26 10:55:50;;;;;;;10.40;3.97;;;;;;;41.37;33.23;98623.06;5044148;28;20025;-72
2023/06/26 10:58:30;;;;;;;5.45;4.13;;;;;;;41.85;33.90;98630.03;5056382;28;20594;-73
2023/06/26 11:01:14;;;;;;;4.47;4.05;;;;;;;43.42;31.92;98624.69;5049620;28;20022;-75
2023/06/26 11:03:41;;;;;;;4.63;3.38;;;;;;;44.52;30.88;98620.44;5044993;28;20494;-73
2023/06/26 11:06:20;;;;;;;5.88;3.58;;;;;;;44.77;30.62;98631.38;5047040;28;20094;-73
2023/06/26 11:08:54;;;;;;;4.40;3.45;;;;;;;44.64;30.83;98605.50;5053238;28;20020;-72
2023/06/26 11:11:20;;;;;;;7.20;3.90;;;;;;;45.43;30.47;98624.63;5055356;28;20033;-72
2023/06/26 11:13:47;;;;;;;5.40;4.07;;;;;;;43.01;30.65;98622.78;5033550;28;20475;-71
2023/06/26 11:16:14;;;;;;;5.43;4.20;;;;;;;39.81;34.55;98619.41;5049396;28;20036;-73
2023/06/26 11:18:39;;;;;;;5.30;3.47;;;;;;;37.66;37.28;98636.00;5044798;28;20032;-74
2023/06/26 11:21:09;;;;;;;6.97;4.55;;;;;;;36.88;39.36;98626.63;5063508;28;20024;-74
2023/06/26 11:23:36;;;;;;;7.13;4.28;;;;;;;39.21;37.31;98624.50;5043659;28;20405;-74
2023/06/26 11:26:15;;;;;;;4.65;3.63;;;;;;;41.11;35.39;98617.91;5054964;28;20475;-74